sensor_id;sensor_type;location;lat;lon;timestamp;temperature;humidity
34768;DHT22;21755;43.608;1.236;2024-02-14T00:00:33;8.30;99.90
34768;DHT22;21755;43.608;1.236;2024-02-14T00:02:59;8.30;99.90
34768;DHT22;21755;43.608;1.236;2024-02-14T00:05:25;8.20;99.90
34768;DHT22;21755;43.608;1.236;2024-02-14T00:07:52;8.20;99.90
34768;DHT22;21755;43.608;1.236;2024-02-14T00:10:18;8.20;99.90
34768;DHT22;21755;43.608;1.236;2024-02-14T00:12:43;8.20;99.90
34768;DHT22;21755;43.608;1.236;2024-02-14T00:15:10;8.20;99.90
34768;DHT22;21755;43.608;1.236;2024-02-14T00:17:36;8.10;99.90
34768;DHT22;21755;43.608;1.236;2024-02-14T00:20:03;8.10;99.90
34768;DHT22;21755;43.608;1.236;2024-02-14T00:22:29;8.10;99.90
34768;DHT22;21755;43.608;1.236;2024-02-14T00:24:55;8.10;99.90
34768;DHT22;21755;43.608;1.236;2024-02-14T00:27:21;8.10;99.90
34768;DHT22;21755;43.608;1.236;2024-02-14T00:29:47;8.10;99.90
34768;DHT22;21755;43.608;1.236;2024-02-14T00:32:14;8.10;99.90
34768;DHT22;21755;43.608;1.236;2024-02-14T00:34:40;8.00;99.90
34768;DHT22;21755;43.608;1.236;2024-02-14T00:37:05;8.00;99.90
34768;DHT22;21755;43.608;1.236;2024-02-14T00:39:31;8.00;99.90
34768;DHT22;21755;43.608;1.236;2024-02-14T00:41:57;8.00;99.90
34768;DHT22;21755;43.608;1.236;2024-02-14T00:44:23;8.00;99.90
34768;DHT22;21755;43.608;1.236;2024-02-14T00:46:49;7.90;99.90
34768;DHT22;21755;43.608;1.236;2024-02-14T00:49:15;8.00;99.90
34768;DHT22;21755;43.608;1.236;2024-02-14T00:51:41;7.90;99.90
34768;DHT22;21755;43.608;1.236;2024-02-14T00:54:07;7.90;99.90
34768;DHT22;21755;43.608;1.236;2024-02-14T00:56:34;7.90;99.90
34768;DHT22;21755;43.608;1.236;2024-02-14T00:59:00;7.90;99.90
34768;DHT22;21755;43.608;1.236;2024-02-14T01:01:26;7.90;99.90
34768;DHT22;21755;43.608;1.236;2024-02-14T01:03:52;7.80;99.90
34768;DHT22;21755;43.608;1.236;2024-02-14T01:06:18;7.80;99.90
34768;DHT22;21755;43.608;1.236;2024-02-14T01:08:45;7.80;99.90
34768;DHT22;21755;43.608;1.236;2024-02-14T01:11:11;7.80;99.90
34768;DHT22;21755;43.608;1.236;2024-02-14T01:13:37;7.80;99.90
34768;DHT22;21755;43.608;1.236;2024-02-14T01:16:04;7.80;99.90
34768;DHT22;21755;43.608;1.236;2024-02-14T01:18:30;7.80;99.90
34768;DHT22;21755;43.608;1.236;2024-02-14T01:20:57;7.70;99.90
34768;DHT22;21755;43.608;1.236;2024-02-14T01:23:24;7.70;99.90
34768;DHT22;21755;43.608;1.236;2024-02-14T01:25:50;7.70;99.90
34768;DHT22;21755;43.608;1.236;2024-02-14T01:28:16;7.70;99.90
34768;DHT22;21755;43.608;1.236;2024-02-14T01:30:43;7.70;99.90
34768;DHT22;21755;43.608;1.236;2024-02-14T01:33:09;7.70;99.90
34768;DHT22;21755;43.608;1.236;2024-02-14T01:35:35;7.70;99.90
34768;DHT22;21755;43.608;1.236;2024-02-14T01:38:01;7.70;99.90
34768;DHT22;21755;43.608;1.236;2024-02-14T01:40:28;7.60;99.90
34768;DHT22;21755;43.608;1.236;2024-02-14T01:42:54;7.60;99.90
34768;DHT22;21755;43.608;1.236;2024-02-14T01:45:21;7.60;99.90
34768;DHT22;21755;43.608;1.236;2024-02-14T01:47:48;7.60;99.90
34768;DHT22;21755;43.608;1.236;2024-02-14T01:50:16;7.60;99.90
34768;DHT22;21755;43.608;1.236;2024-02-14T01:52:42;7.50;99.90
34768;DHT22;21755;43.608;1.236;2024-02-14T01:55:12;7.50;99.90
34768;DHT22;21755;43.608;1.236;2024-02-14T01:57:38;7.50;99.90
34768;DHT22;21755;43.608;1.236;2024-02-14T02:00:06;7.50;99.90
34768;DHT22;21755;43.608;1.236;2024-02-14T02:02:34;7.50;99.90
34768;DHT22;21755;43.608;1.236;2024-02-14T02:05:03;7.50;99.90
34768;DHT22;21755;43.608;1.236;2024-02-14T02:07:29;7.40;99.90
34768;DHT22;21755;43.608;1.236;2024-02-14T02:09:57;7.50;99.90
34768;DHT22;21755;43.608;1.236;2024-02-14T02:12:23;7.40;99.90
34768;DHT22;21755;43.608;1.236;2024-02-14T02:14:50;7.40;99.90
34768;DHT22;21755;43.608;1.236;2024-02-14T02:17:16;7.40;99.90
34768;DHT22;21755;43.608;1.236;2024-02-14T02:19:43;7.40;99.90
34768;DHT22;21755;43.608;1.236;2024-02-14T02:22:09;7.30;99.90
34768;DHT22;21755;43.608;1.236;2024-02-14T02:24:35;7.30;99.90
34768;DHT22;21755;43.608;1.236;2024-02-14T02:27:02;7.30;99.90
34768;DHT22;21755;43.608;1.236;2024-02-14T02:29:28;7.30;99.90
34768;DHT22;21755;43.608;1.236;2024-02-14T02:31:53;7.30;99.90
34768;DHT22;21755;43.608;1.236;2024-02-14T02:34:19;7.30;99.90
34768;DHT22;21755;43.608;1.236;2024-02-14T02:36:45;7.30;99.90
34768;DHT22;21755;43.608;1.236;2024-02-14T02:39:14;7.30;99.90
34768;DHT22;21755;43.608;1.236;2024-02-14T02:41:40;7.30;99.90
34768;DHT22;21755;43.608;1.236;2024-02-14T02:44:06;7.30;99.90
34768;DHT22;21755;43.608;1.236;2024-02-14T02:46:32;7.20;99.90
34768;DHT22;21755;43.608;1.236;2024-02-14T02:48:58;7.20;99.90
34768;DHT22;21755;43.608;1.236;2024-02-14T02:51:24;7.20;99.90
34768;DHT22;21755;43.608;1.236;2024-02-14T02:53:50;7.20;99.90
34768;DHT22;21755;43.608;1.236;2024-02-14T02:56:17;7.20;99.90
34768;DHT22;21755;43.608;1.236;2024-02-14T02:58:44;7.20;99.90
34768;DHT22;21755;43.608;1.236;2024-02-14T03:01:10;7.20;99.90
34768;DHT22;21755;43.608;1.236;2024-02-14T03:03:38;7.20;99.90
34768;DHT22;21755;43.608;1.236;2024-02-14T03:06:05;7.10;99.90
34768;DHT22;21755;43.608;1.236;2024-02-14T03:08:31;7.20;99.90
34768;DHT22;21755;43.608;1.236;2024-02-14T03:11:04;7.10;99.90
34768;DHT22;21755;43.608;1.236;2024-02-14T03:13:31;7.10;99.90
34768;DHT22;21755;43.608;1.236;2024-02-14T03:15:57;7.10;99.90
34768;DHT22;21755;43.608;1.236;2024-02-14T03:18:24;7.10;99.90
34768;DHT22;21755;43.608;1.236;2024-02-14T03:20:50;7.10;99.90
34768;DHT22;21755;43.608;1.236;2024-02-14T03:23:19;7.10;99.90
34768;DHT22;21755;43.608;1.236;2024-02-14T03:25:45;7.00;99.90
34768;DHT22;21755;43.608;1.236;2024-02-14T03:28:11;7.00;99.90
34768;DHT22;21755;43.608;1.236;2024-02-14T03:30:39;7.00;99.90
34768;DHT22;21755;43.608;1.236;2024-02-14T03:33:05;7.00;99.90
34768;DHT22;21755;43.608;1.236;2024-02-14T03:35:31;7.00;99.90
34768;DHT22;21755;43.608;1.236;2024-02-14T03:37:59;7.00;99.90
34768;DHT22;21755;43.608;1.236;2024-02-14T03:40:25;7.00;99.90
34768;DHT22;21755;43.608;1.236;2024-02-14T03:42:51;7.00;99.90
34768;DHT22;21755;43.608;1.236;2024-02-14T03:45:17;6.90;99.90
34768;DHT22;21755;43.608;1.236;2024-02-14T03:47:43;6.90;99.90
34768;DHT22;21755;43.608;1.236;2024-02-14T03:50:09;6.90;99.90
34768;DHT22;21755;43.608;1.236;2024-02-14T03:52:35;6.90;99.90
34768;DHT22;21755;43.608;1.236;2024-02-14T03:55:01;6.90;99.90
34768;DHT22;21755;43.608;1.236;2024-02-14T03:57:28;6.90;99.90
34768;DHT22;21755;43.608;1.236;2024-02-14T04:00:00;6.90;99.90
34768;DHT22;21755;43.608;1.236;2024-02-14T04:02:29;6.80;99.90
34768;DHT22;21755;43.608;1.236;2024-02-14T04:04:55;6.80;99.90
34768;DHT22;21755;43.608;1.236;2024-02-14T04:07:21;6.80;99.90
34768;DHT22;21755;43.608;1.236;2024-02-14T04:09:47;6.80;99.90
34768;DHT22;21755;43.608;1.236;2024-02-14T04:12:13;6.80;99.90
34768;DHT22;21755;43.608;1.236;2024-02-14T04:14:39;6.80;99.90
34768;DHT22;21755;43.608;1.236;2024-02-14T04:17:06;6.70;99.90
34768;DHT22;21755;43.608;1.236;2024-02-14T04:19:36;6.70;99.90
34768;DHT22;21755;43.608;1.236;2024-02-14T04:22:02;6.70;99.90
34768;DHT22;21755;43.608;1.236;2024-02-14T04:24:28;6.70;99.90
34768;DHT22;21755;43.608;1.236;2024-02-14T04:26:54;6.70;99.90
34768;DHT22;21755;43.608;1.236;2024-02-14T04:29:22;6.70;99.90
34768;DHT22;21755;43.608;1.236;2024-02-14T04:31:48;6.70;99.90
34768;DHT22;21755;43.608;1.236;2024-02-14T04:34:14;6.70;99.90
34768;DHT22;21755;43.608;1.236;2024-02-14T04:36:41;6.70;99.90
34768;DHT22;21755;43.608;1.236;2024-02-14T04:39:07;6.60;99.90
34768;DHT22;21755;43.608;1.236;2024-02-14T04:41:34;6.60;99.90
34768;DHT22;21755;43.608;1.236;2024-02-14T04:44:04;6.60;99.90
34768;DHT22;21755;43.608;1.236;2024-02-14T04:46:32;6.60;99.90
34768;DHT22;21755;43.608;1.236;2024-02-14T04:48:58;6.60;99.90
34768;DHT22;21755;43.608;1.236;2024-02-14T04:51:24;6.60;99.90
34768;DHT22;21755;43.608;1.236;2024-02-14T04:53:50;6.50;99.90
34768;DHT22;21755;43.608;1.236;2024-02-14T04:56:16;6.50;99.90
34768;DHT22;21755;43.608;1.236;2024-02-14T04:58:42;6.50;99.90
34768;DHT22;21755;43.608;1.236;2024-02-14T05:01:08;6.50;99.90
34768;DHT22;21755;43.608;1.236;2024-02-14T05:03:34;6.50;99.90
34768;DHT22;21755;43.608;1.236;2024-02-14T05:06:02;6.50;99.90
34768;DHT22;21755;43.608;1.236;2024-02-14T05:08:28;6.50;99.90
34768;DHT22;21755;43.608;1.236;2024-02-14T05:10:54;6.50;99.90
34768;DHT22;21755;43.608;1.236;2024-02-14T05:13:20;6.50;99.90
34768;DHT22;21755;43.608;1.236;2024-02-14T05:15:46;6.40;99.90
34768;DHT22;21755;43.608;1.236;2024-02-14T05:18:12;6.40;99.90
34768;DHT22;21755;43.608;1.236;2024-02-14T05:20:38;6.40;99.90
34768;DHT22;21755;43.608;1.236;2024-02-14T05:23:04;6.40;99.90
34768;DHT22;21755;43.608;1.236;2024-02-14T05:25:30;6.40;99.90
34768;DHT22;21755;43.608;1.236;2024-02-14T05:27:58;6.40;99.90
34768;DHT22;21755;43.608;1.236;2024-02-14T05:30:25;6.40;99.90
34768;DHT22;21755;43.608;1.236;2024-02-14T05:32:52;6.40;99.90
34768;DHT22;21755;43.608;1.236;2024-02-14T05:35:18;6.40;99.90
34768;DHT22;21755;43.608;1.236;2024-02-14T05:37:44;6.30;99.90
34768;DHT22;21755;43.608;1.236;2024-02-14T05:40:16;6.30;99.90
34768;DHT22;21755;43.608;1.236;2024-02-14T05:42:42;6.30;99.90
34768;DHT22;21755;43.608;1.236;2024-02-14T05:45:09;6.30;99.90
34768;DHT22;21755;43.608;1.236;2024-02-14T05:47:35;6.30;99.90
34768;DHT22;21755;43.608;1.236;2024-02-14T05:50:01;6.30;99.90
34768;DHT22;21755;43.608;1.236;2024-02-14T05:52:27;6.20;99.90
34768;DHT22;21755;43.608;1.236;2024-02-14T05:54:53;6.20;99.90
34768;DHT22;21755;43.608;1.236;2024-02-14T05:57:19;6.30;99.90
34768;DHT22;21755;43.608;1.236;2024-02-14T05:59:45;6.20;99.90
34768;DHT22;21755;43.608;1.236;2024-02-14T06:02:11;6.20;99.90
34768;DHT22;21755;43.608;1.236;2024-02-14T06:04:37;6.20;99.90
34768;DHT22;21755;43.608;1.236;2024-02-14T06:07:03;6.20;99.90
34768;DHT22;21755;43.608;1.236;2024-02-14T06:09:31;6.20;99.90
34768;DHT22;21755;43.608;1.236;2024-02-14T06:11:57;6.10;99.90
34768;DHT22;21755;43.608;1.236;2024-02-14T06:14:23;5.70;99.90
34768;DHT22;21755;43.608;1.236;2024-02-14T06:16:49;5.30;99.90
34768;DHT22;21755;43.608;1.236;2024-02-14T06:19:15;5.00;99.90
34768;DHT22;21755;43.608;1.236;2024-02-14T06:21:41;4.70;99.90
34768;DHT22;21755;43.608;1.236;2024-02-14T06:24:06;4.50;99.90
34768;DHT22;21755;43.608;1.236;2024-02-14T06:26:32;4.40;99.90
34768;DHT22;21755;43.608;1.236;2024-02-14T06:28:58;4.30;99.90
34768;DHT22;21755;43.608;1.236;2024-02-14T06:31:24;4.20;99.90
34768;DHT22;21755;43.608;1.236;2024-02-14T06:33:50;4.10;99.90
34768;DHT22;21755;43.608;1.236;2024-02-14T06:36:16;4.10;99.90
34768;DHT22;21755;43.608;1.236;2024-02-14T06:38:42;4.10;99.90
34768;DHT22;21755;43.608;1.236;2024-02-14T06:41:08;4.00;99.90
34768;DHT22;21755;43.608;1.236;2024-02-14T06:43:34;4.00;99.90
34768;DHT22;21755;43.608;1.236;2024-02-14T06:46:03;3.90;99.90
34768;DHT22;21755;43.608;1.236;2024-02-14T06:48:29;3.90;99.90
34768;DHT22;21755;43.608;1.236;2024-02-14T06:50:55;3.90;99.90
34768;DHT22;21755;43.608;1.236;2024-02-14T06:53:21;3.90;99.90
34768;DHT22;21755;43.608;1.236;2024-02-14T06:55:47;3.80;99.90
34768;DHT22;21755;43.608;1.236;2024-02-14T06:58:13;3.80;99.90
34768;DHT22;21755;43.608;1.236;2024-02-14T07:00:39;3.80;99.90
34768;DHT22;21755;43.608;1.236;2024-02-14T07:03:05;3.90;99.90
34768;DHT22;21755;43.608;1.236;2024-02-14T07:05:31;3.90;99.90
34768;DHT22;21755;43.608;1.236;2024-02-14T07:07:57;3.90;99.90
34768;DHT22;21755;43.608;1.236;2024-02-14T07:10:23;3.90;99.90
34768;DHT22;21755;43.608;1.236;2024-02-14T07:12:49;3.80;99.90
34768;DHT22;21755;43.608;1.236;2024-02-14T07:15:15;3.90;99.90
34768;DHT22;21755;43.608;1.236;2024-02-14T07:17:41;3.90;99.90
34768;DHT22;21755;43.608;1.236;2024-02-14T07:20:07;4.00;99.90
34768;DHT22;21755;43.608;1.236;2024-02-14T07:22:36;4.10;99.90
34768;DHT22;21755;43.608;1.236;2024-02-14T07:25:02;4.10;99.90
34768;DHT22;21755;43.608;1.236;2024-02-14T07:27:30;4.00;99.90
34768;DHT22;21755;43.608;1.236;2024-02-14T07:29:56;4.00;99.90
34768;DHT22;21755;43.608;1.236;2024-02-14T07:32:22;4.00;99.90
34768;DHT22;21755;43.608;1.236;2024-02-14T07:34:48;4.00;99.90
34768;DHT22;21755;43.608;1.236;2024-02-14T07:37:14;4.00;99.90
34768;DHT22;21755;43.608;1.236;2024-02-14T07:39:45;4.10;99.90
34768;DHT22;21755;43.608;1.236;2024-02-14T07:42:12;4.10;99.90
34768;DHT22;21755;43.608;1.236;2024-02-14T07:44:38;4.20;99.90
34768;DHT22;21755;43.608;1.236;2024-02-14T07:47:04;4.30;99.90
34768;DHT22;21755;43.608;1.236;2024-02-14T07:49:30;4.30;99.90
34768;DHT22;21755;43.608;1.236;2024-02-14T07:51:56;4.40;99.90
34768;DHT22;21755;43.608;1.236;2024-02-14T07:54:22;4.50;99.90
34768;DHT22;21755;43.608;1.236;2024-02-14T07:56:48;4.60;99.90
34768;DHT22;21755;43.608;1.236;2024-02-14T07:59:13;4.70;99.90
34768;DHT22;21755;43.608;1.236;2024-02-14T08:01:39;4.80;99.90
34768;DHT22;21755;43.608;1.236;2024-02-14T08:04:05;4.80;99.90
34768;DHT22;21755;43.608;1.236;2024-02-14T08:06:31;4.90;99.90
34768;DHT22;21755;43.608;1.236;2024-02-14T08:08:57;5.00;99.90
34768;DHT22;21755;43.608;1.236;2024-02-14T08:11:27;5.10;99.90
34768;DHT22;21755;43.608;1.236;2024-02-14T08:13:54;5.10;99.90
34768;DHT22;21755;43.608;1.236;2024-02-14T08:16:20;5.20;99.90
34768;DHT22;21755;43.608;1.236;2024-02-14T08:18:46;5.30;99.90
34768;DHT22;21755;43.608;1.236;2024-02-14T08:21:14;5.40;99.90
34768;DHT22;21755;43.608;1.236;2024-02-14T08:23:40;5.50;99.90
34768;DHT22;21755;43.608;1.236;2024-02-14T08:26:07;5.60;99.90
34768;DHT22;21755;43.608;1.236;2024-02-14T08:28:38;5.70;99.90
34768;DHT22;21755;43.608;1.236;2024-02-14T08:31:11;5.80;99.90
34768;DHT22;21755;43.608;1.236;2024-02-14T08:33:37;5.90;99.90
34768;DHT22;21755;43.608;1.236;2024-02-14T08:36:06;6.00;99.90
34768;DHT22;21755;43.608;1.236;2024-02-14T08:38:35;6.20;99.90
34768;DHT22;21755;43.608;1.236;2024-02-14T08:41:02;6.30;99.90
34768;DHT22;21755;43.608;1.236;2024-02-14T08:43:28;6.40;99.90
34768;DHT22;21755;43.608;1.236;2024-02-14T08:45:55;6.50;99.90
34768;DHT22;21755;43.608;1.236;2024-02-14T08:48:21;6.60;99.90
34768;DHT22;21755;43.608;1.236;2024-02-14T08:50:47;6.70;99.90
34768;DHT22;21755;43.608;1.236;2024-02-14T08:53:13;6.90;99.90
34768;DHT22;21755;43.608;1.236;2024-02-14T08:55:42;7.00;99.90
34768;DHT22;21755;43.608;1.236;2024-02-14T08:58:09;7.10;99.90
34768;DHT22;21755;43.608;1.236;2024-02-14T09:00:37;7.30;99.90
34768;DHT22;21755;43.608;1.236;2024-02-14T09:03:05;7.30;99.90
34768;DHT22;21755;43.608;1.236;2024-02-14T09:05:31;7.40;99.90
34768;DHT22;21755;43.608;1.236;2024-02-14T09:07:57;7.50;99.90
34768;DHT22;21755;43.608;1.236;2024-02-14T09:10:23;7.60;99.90
34768;DHT22;21755;43.608;1.236;2024-02-14T09:12:49;7.70;99.90
34768;DHT22;21755;43.608;1.236;2024-02-14T09:15:15;7.80;99.90
34768;DHT22;21755;43.608;1.236;2024-02-14T09:17:41;8.00;99.90
34768;DHT22;21755;43.608;1.236;2024-02-14T09:20:09;8.10;99.90
34768;DHT22;21755;43.608;1.236;2024-02-14T09:22:35;8.10;99.90
34768;DHT22;21755;43.608;1.236;2024-02-14T09:25:01;8.20;99.90
34768;DHT22;21755;43.608;1.236;2024-02-14T09:27:30;8.30;99.90
34768;DHT22;21755;43.608;1.236;2024-02-14T09:29:56;8.40;99.90
34768;DHT22;21755;43.608;1.236;2024-02-14T09:32:22;8.60;99.90
34768;DHT22;21755;43.608;1.236;2024-02-14T09:34:48;8.60;99.90
34768;DHT22;21755;43.608;1.236;2024-02-14T09:37:14;8.70;99.90
34768;DHT22;21755;43.608;1.236;2024-02-14T09:39:40;8.80;99.90
34768;DHT22;21755;43.608;1.236;2024-02-14T09:42:11;8.90;99.90
34768;DHT22;21755;43.608;1.236;2024-02-14T09:44:40;9.00;99.90
34768;DHT22;21755;43.608;1.236;2024-02-14T09:47:07;9.10;99.90
34768;DHT22;21755;43.608;1.236;2024-02-14T09:49:35;9.20;99.90
34768;DHT22;21755;43.608;1.236;2024-02-14T09:52:02;9.40;99.90
34768;DHT22;21755;43.608;1.236;2024-02-14T09:54:30;9.50;99.90
34768;DHT22;21755;43.608;1.236;2024-02-14T09:56:57;9.60;99.90
34768;DHT22;21755;43.608;1.236;2024-02-14T09:59:24;9.80;99.90
34768;DHT22;21755;43.608;1.236;2024-02-14T10:01:50;9.90;99.90
34768;DHT22;21755;43.608;1.236;2024-02-14T10:04:17;10.00;99.90
34768;DHT22;21755;43.608;1.236;2024-02-14T10:06:45;10.00;99.90
34768;DHT22;21755;43.608;1.236;2024-02-14T10:09:11;10.10;99.90
34768;DHT22;21755;43.608;1.236;2024-02-14T10:11:37;10.20;99.90
34768;DHT22;21755;43.608;1.236;2024-02-14T10:14:05;10.30;99.90
34768;DHT22;21755;43.608;1.236;2024-02-14T10:16:35;10.30;99.90
34768;DHT22;21755;43.608;1.236;2024-02-14T10:19:01;10.40;99.90
34768;DHT22;21755;43.608;1.236;2024-02-14T10:21:28;10.40;99.90
34768;DHT22;21755;43.608;1.236;2024-02-14T10:23:54;10.40;99.90
34768;DHT22;21755;43.608;1.236;2024-02-14T10:26:23;10.50;99.90
34768;DHT22;21755;43.608;1.236;2024-02-14T10:28:49;10.50;99.90
34768;DHT22;21755;43.608;1.236;2024-02-14T10:31:17;10.60;99.90
34768;DHT22;21755;43.608;1.236;2024-02-14T10:33:43;10.60;99.90
34768;DHT22;21755;43.608;1.236;2024-02-14T10:36:09;10.70;99.90
34768;DHT22;21755;43.608;1.236;2024-02-14T10:38:37;10.80;99.90
34768;DHT22;21755;43.608;1.236;2024-02-14T10:41:05;10.90;99.90
34768;DHT22;21755;43.608;1.236;2024-02-14T10:43:31;11.00;99.90
34768;DHT22;21755;43.608;1.236;2024-02-14T10:46:02;11.10;99.90
34768;DHT22;21755;43.608;1.236;2024-02-14T10:48:32;11.10;99.90
34768;DHT22;21755;43.608;1.236;2024-02-14T10:51:02;11.20;99.90
34768;DHT22;21755;43.608;1.236;2024-02-14T10:53:32;11.20;99.90
34768;DHT22;21755;43.608;1.236;2024-02-14T10:56:02;11.40;99.90
34768;DHT22;21755;43.608;1.236;2024-02-14T10:58:29;11.50;99.90
34768;DHT22;21755;43.608;1.236;2024-02-14T11:00:57;11.60;99.90
34768;DHT22;21755;43.608;1.236;2024-02-14T11:03:23;11.70;99.90
34768;DHT22;21755;43.608;1.236;2024-02-14T11:05:49;11.80;99.90
34768;DHT22;21755;43.608;1.236;2024-02-14T11:08:19;11.80;99.90
34768;DHT22;21755;43.608;1.236;2024-02-14T11:10:55;11.80;99.90
34768;DHT22;21755;43.608;1.236;2024-02-14T11:13:24;11.90;99.90
34768;DHT22;21755;43.608;1.236;2024-02-14T11:15:52;11.90;99.90
34768;DHT22;21755;43.608;1.236;2024-02-14T11:18:28;12.00;99.90
34768;DHT22;21755;43.608;1.236;2024-02-14T11:20:58;12.10;99.90
34768;DHT22;21755;43.608;1.236;2024-02-14T11:23:25;12.20;99.90
34768;DHT22;21755;43.608;1.236;2024-02-14T11:25:59;12.30;99.90
34768;DHT22;21755;43.608;1.236;2024-02-14T11:28:26;12.30;99.90
34768;DHT22;21755;43.608;1.236;2024-02-14T11:30:51;12.40;99.90
34768;DHT22;21755;43.608;1.236;2024-02-14T11:33:23;12.50;99.90
34768;DHT22;21755;43.608;1.236;2024-02-14T11:35:51;12.70;99.90
34768;DHT22;21755;43.608;1.236;2024-02-14T11:38:21;12.80;99.90
34768;DHT22;21755;43.608;1.236;2024-02-14T11:40:47;12.90;99.90
34768;DHT22;21755;43.608;1.236;2024-02-14T11:43:16;13.10;99.90
34768;DHT22;21755;43.608;1.236;2024-02-14T11:45:48;13.20;99.90
34768;DHT22;21755;43.608;1.236;2024-02-14T11:48:18;13.30;99.90
34768;DHT22;21755;43.608;1.236;2024-02-14T11:50:46;13.30;99.90
34768;DHT22;21755;43.608;1.236;2024-02-14T11:53:15;13.40;99.90
34768;DHT22;21755;43.608;1.236;2024-02-14T11:55:47;13.40;99.90
34768;DHT22;21755;43.608;1.236;2024-02-14T11:58:15;13.50;99.90
34768;DHT22;21755;43.608;1.236;2024-02-14T12:00:44;13.60;99.90
34768;DHT22;21755;43.608;1.236;2024-02-14T12:03:19;13.60;99.90
34768;DHT22;21755;43.608;1.236;2024-02-14T12:05:47;13.70;99.90
34768;DHT22;21755;43.608;1.236;2024-02-14T12:08:16;13.80;99.90
34768;DHT22;21755;43.608;1.236;2024-02-14T12:10:44;13.90;99.90
34768;DHT22;21755;43.608;1.236;2024-02-14T12:13:17;13.90;99.90
34768;DHT22;21755;43.608;1.236;2024-02-14T12:15:46;14.00;99.90
34768;DHT22;21755;43.608;1.236;2024-02-14T12:18:13;14.10;99.90
34768;DHT22;21755;43.608;1.236;2024-02-14T12:20:42;14.20;99.90
34768;DHT22;21755;43.608;1.236;2024-02-14T12:23:16;14.30;99.90
34768;DHT22;21755;43.608;1.236;2024-02-14T12:25:47;14.30;99.90
34768;DHT22;21755;43.608;1.236;2024-02-14T12:28:16;14.40;99.90
34768;DHT22;21755;43.608;1.236;2024-02-14T12:30:46;14.60;99.90
34768;DHT22;21755;43.608;1.236;2024-02-14T12:33:14;14.70;99.90
34768;DHT22;21755;43.608;1.236;2024-02-14T12:35:45;14.70;99.90
34768;DHT22;21755;43.608;1.236;2024-02-14T12:38:13;14.80;99.90
34768;DHT22;21755;43.608;1.236;2024-02-14T12:40:39;14.80;99.90
34768;DHT22;21755;43.608;1.236;2024-02-14T12:43:13;14.90;99.90
34768;DHT22;21755;43.608;1.236;2024-02-14T12:45:40;15.00;99.90
34768;DHT22;21755;43.608;1.236;2024-02-14T12:48:07;15.00;99.90
34768;DHT22;21755;43.608;1.236;2024-02-14T12:50:38;15.10;99.90
34768;DHT22;21755;43.608;1.236;2024-02-14T12:53:05;15.20;99.90
34768;DHT22;21755;43.608;1.236;2024-02-14T12:55:31;15.30;99.90
34768;DHT22;21755;43.608;1.236;2024-02-14T12:57:57;15.30;99.90
34768;DHT22;21755;43.608;1.236;2024-02-14T13:00:23;15.30;99.90
34768;DHT22;21755;43.608;1.236;2024-02-14T13:02:50;15.40;99.90
34768;DHT22;21755;43.608;1.236;2024-02-14T13:05:16;15.50;99.90
34768;DHT22;21755;43.608;1.236;2024-02-14T13:07:43;15.50;99.90
34768;DHT22;21755;43.608;1.236;2024-02-14T13:10:09;15.50;99.90
34768;DHT22;21755;43.608;1.236;2024-02-14T13:12:37;15.50;99.90
34768;DHT22;21755;43.608;1.236;2024-02-14T13:15:05;15.40;99.90
34768;DHT22;21755;43.608;1.236;2024-02-14T13:17:31;15.40;99.90
34768;DHT22;21755;43.608;1.236;2024-02-14T13:19:56;15.50;99.90
34768;DHT22;21755;43.608;1.236;2024-02-14T13:22:25;15.60;99.90
34768;DHT22;21755;43.608;1.236;2024-02-14T13:24:51;15.70;99.90
34768;DHT22;21755;43.608;1.236;2024-02-14T13:27:17;15.80;99.90
34768;DHT22;21755;43.608;1.236;2024-02-14T13:29:45;15.90;99.90
34768;DHT22;21755;43.608;1.236;2024-02-14T13:32:11;16.00;99.90
34768;DHT22;21755;43.608;1.236;2024-02-14T13:34:37;16.00;99.90
34768;DHT22;21755;43.608;1.236;2024-02-14T13:37:04;16.10;99.90
34768;DHT22;21755;43.608;1.236;2024-02-14T13:39:30;16.20;99.90
34768;DHT22;21755;43.608;1.236;2024-02-14T13:41:55;16.20;99.90
34768;DHT22;21755;43.608;1.236;2024-02-14T13:44:24;16.20;99.90
34768;DHT22;21755;43.608;1.236;2024-02-14T13:46:54;16.50;99.90
34768;DHT22;21755;43.608;1.236;2024-02-14T13:49:20;16.70;99.90
34768;DHT22;21755;43.608;1.236;2024-02-14T13:51:50;16.60;99.50
34768;DHT22;21755;43.608;1.236;2024-02-14T13:54:20;16.50;99.40
34768;DHT22;21755;43.608;1.236;2024-02-14T13:56:46;16.40;99.30
34768;DHT22;21755;43.608;1.236;2024-02-14T13:59:14;16.50;99.70
34768;DHT22;21755;43.608;1.236;2024-02-14T14:01:40;16.50;99.90
34768;DHT22;21755;43.608;1.236;2024-02-14T14:04:06;16.40;99.50
34768;DHT22;21755;43.608;1.236;2024-02-14T14:06:32;16.60;99.30
34768;DHT22;21755;43.608;1.236;2024-02-14T14:08:59;16.70;99.20
34768;DHT22;21755;43.608;1.236;2024-02-14T14:11:25;16.70;99.30
34768;DHT22;21755;43.608;1.236;2024-02-14T14:13:51;16.70;99.50
34768;DHT22;21755;43.608;1.236;2024-02-14T14:16:17;16.70;99.90
34768;DHT22;21755;43.608;1.236;2024-02-14T14:18:46;16.80;99.90
34768;DHT22;21755;43.608;1.236;2024-02-14T14:21:12;17.00;99.50
34768;DHT22;21755;43.608;1.236;2024-02-14T14:23:38;17.00;99.70
34768;DHT22;21755;43.608;1.236;2024-02-14T14:26:04;17.10;99.50
34768;DHT22;21755;43.608;1.236;2024-02-14T14:28:31;17.10;99.80
34768;DHT22;21755;43.608;1.236;2024-02-14T14:30:57;17.20;99.30
34768;DHT22;21755;43.608;1.236;2024-02-14T14:33:26;17.30;98.90
34768;DHT22;21755;43.608;1.236;2024-02-14T14:35:52;17.30;99.20
34768;DHT22;21755;43.608;1.236;2024-02-14T14:38:19;17.30;99.00
34768;DHT22;21755;43.608;1.236;2024-02-14T14:40:46;17.30;99.50
34768;DHT22;21755;43.608;1.236;2024-02-14T14:43:13;17.20;99.70
34768;DHT22;21755;43.608;1.236;2024-02-14T14:45:39;17.20;99.40
34768;DHT22;21755;43.608;1.236;2024-02-14T14:48:07;17.10;99.40
34768;DHT22;21755;43.608;1.236;2024-02-14T14:50:33;17.20;99.20
34768;DHT22;21755;43.608;1.236;2024-02-14T14:52:59;17.20;99.40
34768;DHT22;21755;43.608;1.236;2024-02-14T14:55:25;17.10;99.50
34768;DHT22;21755;43.608;1.236;2024-02-14T14:57:53;17.00;99.20
34768;DHT22;21755;43.608;1.236;2024-02-14T15:00:21;16.90;99.60
34768;DHT22;21755;43.608;1.236;2024-02-14T15:02:47;16.80;99.60
34768;DHT22;21755;43.608;1.236;2024-02-14T15:05:15;16.80;99.40
34768;DHT22;21755;43.608;1.236;2024-02-14T15:07:41;16.80;99.70
34768;DHT22;21755;43.608;1.236;2024-02-14T15:10:07;16.80;99.90
34768;DHT22;21755;43.608;1.236;2024-02-14T15:12:33;16.70;99.90
34768;DHT22;21755;43.608;1.236;2024-02-14T15:15:05;16.70;99.90
34768;DHT22;21755;43.608;1.236;2024-02-14T15:17:31;16.70;99.90
34768;DHT22;21755;43.608;1.236;2024-02-14T15:19:57;16.60;99.90
34768;DHT22;21755;43.608;1.236;2024-02-14T15:22:23;16.50;99.90
34768;DHT22;21755;43.608;1.236;2024-02-14T15:24:55;16.40;99.90
34768;DHT22;21755;43.608;1.236;2024-02-14T15:27:21;16.30;99.90
34768;DHT22;21755;43.608;1.236;2024-02-14T15:29:50;16.20;99.90
34768;DHT22;21755;43.608;1.236;2024-02-14T15:32:35;16.20;99.90
34768;DHT22;21755;43.608;1.236;2024-02-14T15:35:19;16.10;99.90
34768;DHT22;21755;43.608;1.236;2024-02-14T15:37:45;16.00;99.90